sensor_id;sensor_type;location;lat;lon;timestamp;P1;durP1;ratioP1;P2;durP2;ratioP2
45274;SDS011;31019;43.780;25.948;2022-07-22T00:01:50;52.47;;;48.85;;
45274;SDS011;31019;43.780;25.948;2022-07-22T00:04:18;36.08;;;33.47;;
45274;SDS011;31019;43.780;25.948;2022-07-22T00:06:45;58.38;;;54.60;;
45274;SDS011;31019;43.780;25.948;2022-07-22T00:09:12;54.28;;;50.50;;
45274;SDS011;31019;43.780;25.948;2022-07-22T00:11:39;39.33;;;36.33;;
45274;SDS011;31019;43.780;25.948;2022-07-22T00:14:08;48.25;;;45.30;;
45274;SDS011;31019;43.780;25.948;2022-07-22T00:16:34;47.08;;;43.90;;
45274;SDS011;31019;43.780;25.948;2022-07-22T00:19:01;43.67;;;40.88;;
45274;SDS011;31019;43.780;25.948;2022-07-22T00:21:29;48.97;;;45.22;;
45274;SDS011;31019;43.780;25.948;2022-07-22T00:23:57;41.20;;;38.33;;
45274;SDS011;31019;43.780;25.948;2022-07-22T00:26:24;45.92;;;42.92;;
45274;SDS011;31019;43.780;25.948;2022-07-22T00:28:51;44.78;;;42.05;;
45274;SDS011;31019;43.780;25.948;2022-07-22T00:31:20;44.85;;;41.70;;
45274;SDS011;31019;43.780;25.948;2022-07-22T00:33:49;51.88;;;48.78;;
45274;SDS011;31019;43.780;25.948;2022-07-22T00:36:17;42.80;;;39.95;;
45274;SDS011;31019;43.780;25.948;2022-07-22T00:38:44;44.92;;;41.95;;
45274;SDS011;31019;43.780;25.948;2022-07-22T00:41:11;49.80;;;46.80;;
45274;SDS011;31019;43.780;25.948;2022-07-22T00:43:51;50.72;;;47.40;;
45274;SDS011;31019;43.780;25.948;2022-07-22T00:46:21;47.53;;;44.35;;
45274;SDS011;31019;43.780;25.948;2022-07-22T00:48:48;42.97;;;40.08;;
45274;SDS011;31019;43.780;25.948;2022-07-22T00:51:18;41.15;;;38.55;;
45274;SDS011;31019;43.780;25.948;2022-07-22T00:53:48;40.28;;;37.67;;
45274;SDS011;31019;43.780;25.948;2022-07-22T00:56:16;41.10;;;38.15;;
45274;SDS011;31019;43.780;25.948;2022-07-22T00:58:45;40.88;;;37.90;;
45274;SDS011;31019;43.780;25.948;2022-07-22T01:01:13;42.03;;;38.92;;
45274;SDS011;31019;43.780;25.948;2022-07-22T01:03:42;42.13;;;38.72;;
45274;SDS011;31019;43.780;25.948;2022-07-22T01:06:09;53.45;;;50.42;;
45274;SDS011;31019;43.780;25.948;2022-07-22T01:08:38;42.88;;;39.90;;
45274;SDS011;31019;43.780;25.948;2022-07-22T01:11:07;39.50;;;36.53;;
45274;SDS011;31019;43.780;25.948;2022-07-22T01:13:36;46.72;;;43.72;;
45274;SDS011;31019;43.780;25.948;2022-07-22T01:16:04;47.55;;;44.47;;
45274;SDS011;31019;43.780;25.948;2022-07-22T01:18:35;44.45;;;41.22;;
45274;SDS011;31019;43.780;25.948;2022-07-22T01:21:06;39.80;;;36.83;;
45274;SDS011;31019;43.780;25.948;2022-07-22T01:23:36;45.90;;;42.50;;
45274;SDS011;31019;43.780;25.948;2022-07-22T01:26:03;42.50;;;39.40;;
45274;SDS011;31019;43.780;25.948;2022-07-22T01:28:30;44.92;;;41.47;;
45274;SDS011;31019;43.780;25.948;2022-07-22T01:30:58;46.03;;;42.47;;
45274;SDS011;31019;43.780;25.948;2022-07-22T01:33:25;46.47;;;43.13;;
45274;SDS011;31019;43.780;25.948;2022-07-22T01:35:52;37.28;;;33.95;;
45274;SDS011;31019;43.780;25.948;2022-07-22T01:38:22;42.30;;;39.00;;
45274;SDS011;31019;43.780;25.948;2022-07-22T01:40:50;43.60;;;39.72;;
45274;SDS011;31019;43.780;25.948;2022-07-22T01:43:19;40.85;;;38.03;;
45274;SDS011;31019;43.780;25.948;2022-07-22T01:45:48;40.17;;;37.30;;
45274;SDS011;31019;43.780;25.948;2022-07-22T01:48:19;43.20;;;40.10;;
45274;SDS011;31019;43.780;25.948;2022-07-22T01:50:47;40.67;;;37.45;;
45274;SDS011;31019;43.780;25.948;2022-07-22T01:53:14;40.15;;;37.00;;
45274;SDS011;31019;43.780;25.948;2022-07-22T01:55:44;38.53;;;35.47;;
45274;SDS011;31019;43.780;25.948;2022-07-22T01:58:13;37.17;;;34.17;;
45274;SDS011;31019;43.780;25.948;2022-07-22T02:00:40;37.33;;;34.13;;
45274;SDS011;31019;43.780;25.948;2022-07-22T02:03:07;43.60;;;40.20;;
45274;SDS011;31019;43.780;25.948;2022-07-22T02:05:35;43.90;;;40.47;;
45274;SDS011;31019;43.780;25.948;2022-07-22T02:08:03;44.28;;;41.17;;
45274;SDS011;31019;43.780;25.948;2022-07-22T02:10:32;42.63;;;39.22;;
45274;SDS011;31019;43.780;25.948;2022-07-22T02:13:00;44.60;;;40.72;;
45274;SDS011;31019;43.780;25.948;2022-07-22T02:15:27;48.30;;;44.65;;
45274;SDS011;31019;43.780;25.948;2022-07-22T02:17:54;47.47;;;43.78;;
45274;SDS011;31019;43.780;25.948;2022-07-22T02:20:22;55.33;;;51.42;;
45274;SDS011;31019;43.780;25.948;2022-07-22T02:22:49;58.72;;;54.78;;
45274;SDS011;31019;43.780;25.948;2022-07-22T02:25:16;55.10;;;51.10;;
45274;SDS011;31019;43.780;25.948;2022-07-22T02:27:44;47.28;;;43.85;;
45274;SDS011;31019;43.780;25.948;2022-07-22T02:30:12;41.70;;;38.08;;
45274;SDS011;31019;43.780;25.948;2022-07-22T02:32:39;50.70;;;47.00;;
45274;SDS011;31019;43.780;25.948;2022-07-22T02:35:06;51.05;;;47.28;;
45274;SDS011;31019;43.780;25.948;2022-07-22T02:37:34;61.40;;;56.92;;
45274;SDS011;31019;43.780;25.948;2022-07-22T02:40:02;46.42;;;42.40;;
45274;SDS011;31019;43.780;25.948;2022-07-22T02:42:30;51.38;;;47.17;;
45274;SDS011;31019;43.780;25.948;2022-07-22T02:44:57;46.47;;;42.55;;
45274;SDS011;31019;43.780;25.948;2022-07-22T02:47:25;40.08;;;36.88;;
45274;SDS011;31019;43.780;25.948;2022-07-22T02:49:52;43.30;;;39.70;;
45274;SDS011;31019;43.780;25.948;2022-07-22T02:52:19;49.28;;;45.70;;
45274;SDS011;31019;43.780;25.948;2022-07-22T02:54:46;45.05;;;41.30;;
45274;SDS011;31019;43.780;25.948;2022-07-22T02:57:13;36.65;;;33.40;;
45274;SDS011;31019;43.780;25.948;2022-07-22T02:59:40;35.03;;;32.00;;
45274;SDS011;31019;43.780;25.948;2022-07-22T03:02:07;39.90;;;36.65;;
45274;SDS011;31019;43.780;25.948;2022-07-22T03:04:35;35.65;;;32.83;;
45274;SDS011;31019;43.780;25.948;2022-07-22T03:07:02;38.08;;;35.08;;
45274;SDS011;31019;43.780;25.948;2022-07-22T03:09:30;36.80;;;33.90;;
45274;SDS011;31019;43.780;25.948;2022-07-22T03:11:57;34.15;;;31.25;;
45274;SDS011;31019;43.780;25.948;2022-07-22T03:14:24;44.78;;;41.55;;
45274;SDS011;31019;43.780;25.948;2022-07-22T03:16:51;41.72;;;38.80;;
45274;SDS011;31019;43.780;25.948;2022-07-22T03:19:19;44.53;;;41.17;;
45274;SDS011;31019;43.780;25.948;2022-07-22T03:21:48;43.85;;;40.88;;
45274;SDS011;31019;43.780;25.948;2022-07-22T03:24:15;49.92;;;46.38;;
45274;SDS011;31019;43.780;25.948;2022-07-22T03:26:42;56.95;;;53.17;;
45274;SDS011;31019;43.780;25.948;2022-07-22T03:29:11;53.42;;;49.78;;
45274;SDS011;31019;43.780;25.948;2022-07-22T03:31:38;44.70;;;41.50;;
45274;SDS011;31019;43.780;25.948;2022-07-22T03:34:05;39.40;;;36.63;;
45274;SDS011;31019;43.780;25.948;2022-07-22T03:36:32;42.60;;;39.40;;
45274;SDS011;31019;43.780;25.948;2022-07-22T03:39:01;42.80;;;39.90;;
45274;SDS011;31019;43.780;25.948;2022-07-22T03:41:28;36.28;;;33.78;;
45274;SDS011;31019;43.780;25.948;2022-07-22T03:43:56;40.40;;;36.80;;
45274;SDS011;31019;43.780;25.948;2022-07-22T03:46:22;40.47;;;37.45;;
45274;SDS011;31019;43.780;25.948;2022-07-22T03:48:50;44.90;;;41.63;;
45274;SDS011;31019;43.780;25.948;2022-07-22T03:51:23;39.40;;;36.78;;
45274;SDS011;31019;43.780;25.948;2022-07-22T03:53:50;43.90;;;40.80;;
45274;SDS011;31019;43.780;25.948;2022-07-22T03:56:19;41.92;;;39.08;;
45274;SDS011;31019;43.780;25.948;2022-07-22T03:58:45;38.28;;;35.38;;
45274;SDS011;31019;43.780;25.948;2022-07-22T04:01:12;36.50;;;34.05;;
45274;SDS011;31019;43.780;25.948;2022-07-22T04:03:39;39.95;;;36.40;;
45274;SDS011;31019;43.780;25.948;2022-07-22T04:06:06;43.38;;;40.15;;
45274;SDS011;31019;43.780;25.948;2022-07-22T04:08:34;38.45;;;35.95;;
45274;SDS011;31019;43.780;25.948;2022-07-22T04:11:02;36.40;;;34.00;;
45274;SDS011;31019;43.780;25.948;2022-07-22T04:13:30;35.20;;;32.63;;
45274;SDS011;31019;43.780;25.948;2022-07-22T04:15:57;36.33;;;33.72;;
45274;SDS011;31019;43.780;25.948;2022-07-22T04:18:25;40.35;;;37.45;;
45274;SDS011;31019;43.780;25.948;2022-07-22T04:20:51;49.03;;;45.85;;
45274;SDS011;31019;43.780;25.948;2022-07-22T04:23:20;47.92;;;44.88;;
45274;SDS011;31019;43.780;25.948;2022-07-22T04:25:47;39.78;;;37.08;;
45274;SDS011;31019;43.780;25.948;2022-07-22T04:28:15;39.78;;;36.80;;
45274;SDS011;31019;43.780;25.948;2022-07-22T04:30:45;41.17;;;38.10;;
45274;SDS011;31019;43.780;25.948;2022-07-22T04:33:12;41.80;;;38.90;;
45274;SDS011;31019;43.780;25.948;2022-07-22T04:35:39;43.03;;;39.85;;
45274;SDS011;31019;43.780;25.948;2022-07-22T04:38:06;40.33;;;37.65;;
45274;SDS011;31019;43.780;25.948;2022-07-22T04:40:33;41.63;;;38.78;;
45274;SDS011;31019;43.780;25.948;2022-07-22T04:43:00;38.35;;;35.40;;
45274;SDS011;31019;43.780;25.948;2022-07-22T04:45:27;39.92;;;37.30;;
45274;SDS011;31019;43.780;25.948;2022-07-22T04:47:56;41.22;;;38.50;;
45274;SDS011;31019;43.780;25.948;2022-07-22T04:50:23;37.45;;;34.95;;
45274;SDS011;31019;43.780;25.948;2022-07-22T04:52:50;36.53;;;33.80;;
45274;SDS011;31019;43.780;25.948;2022-07-22T04:55:17;35.25;;;32.78;;
45274;SDS011;31019;43.780;25.948;2022-07-22T04:57:45;41.08;;;38.47;;
45274;SDS011;31019;43.780;25.948;2022-07-22T05:00:13;43.22;;;40.20;;
45274;SDS011;31019;43.780;25.948;2022-07-22T05:02:42;34.22;;;32.05;;
45274;SDS011;31019;43.780;25.948;2022-07-22T05:05:11;33.83;;;30.98;;
45274;SDS011;31019;43.780;25.948;2022-07-22T05:07:38;34.20;;;31.67;;
45274;SDS011;31019;43.780;25.948;2022-07-22T05:10:07;30.95;;;28.77;;
45274;SDS011;31019;43.780;25.948;2022-07-22T05:12:34;35.03;;;32.47;;
45274;SDS011;31019;43.780;25.948;2022-07-22T05:15:02;32.00;;;29.55;;
45274;SDS011;31019;43.780;25.948;2022-07-22T05:17:30;31.38;;;28.85;;
45274;SDS011;31019;43.780;25.948;2022-07-22T05:19:57;29.25;;;26.88;;
45274;SDS011;31019;43.780;25.948;2022-07-22T05:22:26;30.98;;;28.58;;
45274;SDS011;31019;43.780;25.948;2022-07-22T05:24:52;32.05;;;29.65;;
45274;SDS011;31019;43.780;25.948;2022-07-22T05:27:19;33.80;;;30.92;;
45274;SDS011;31019;43.780;25.948;2022-07-22T05:29:46;32.28;;;29.77;;
45274;SDS011;31019;43.780;25.948;2022-07-22T05:32:13;29.42;;;27.50;;
45274;SDS011;31019;43.780;25.948;2022-07-22T05:34:40;30.52;;;28.50;;
45274;SDS011;31019;43.780;25.948;2022-07-22T05:37:07;29.65;;;27.50;;
45274;SDS011;31019;43.780;25.948;2022-07-22T05:39:35;32.05;;;29.20;;
45274;SDS011;31019;43.780;25.948;2022-07-22T05:42:02;31.40;;;29.10;;
45274;SDS011;31019;43.780;25.948;2022-07-22T05:44:30;36.30;;;33.75;;
45274;SDS011;31019;43.780;25.948;2022-07-22T05:46:57;33.67;;;30.90;;
45274;SDS011;31019;43.780;25.948;2022-07-22T05:49:24;32.58;;;30.25;;
45274;SDS011;31019;43.780;25.948;2022-07-22T05:51:52;32.90;;;30.77;;
45274;SDS011;31019;43.780;25.948;2022-07-22T05:54:20;34.25;;;31.92;;
45274;SDS011;31019;43.780;25.948;2022-07-22T05:56:50;35.33;;;33.22;;
45274;SDS011;31019;43.780;25.948;2022-07-22T05:59:17;35.13;;;32.65;;
45274;SDS011;31019;43.780;25.948;2022-07-22T06:01:44;34.47;;;32.33;;
45274;SDS011;31019;43.780;25.948;2022-07-22T06:04:12;31.95;;;29.42;;
45274;SDS011;31019;43.780;25.948;2022-07-22T06:06:39;31.38;;;29.35;;
45274;SDS011;31019;43.780;25.948;2022-07-22T06:09:07;32.17;;;29.88;;
45274;SDS011;31019;43.780;25.948;2022-07-22T06:11:34;36.38;;;33.97;;
45274;SDS011;31019;43.780;25.948;2022-07-22T06:14:02;30.70;;;28.17;;
45274;SDS011;31019;43.780;25.948;2022-07-22T06:16:29;32.20;;;30.40;;
45274;SDS011;31019;43.780;25.948;2022-07-22T06:18:57;38.15;;;35.50;;
45274;SDS011;31019;43.780;25.948;2022-07-22T06:21:24;38.03;;;35.70;;
45274;SDS011;31019;43.780;25.948;2022-07-22T06:23:51;39.05;;;36.40;;
45274;SDS011;31019;43.780;25.948;2022-07-22T06:26:19;36.60;;;34.60;;
45274;SDS011;31019;43.780;25.948;2022-07-22T06:28:46;34.75;;;32.58;;
45274;SDS011;31019;43.780;25.948;2022-07-22T06:31:15;34.35;;;32.35;;
45274;SDS011;31019;43.780;25.948;2022-07-22T06:33:42;32.92;;;30.92;;
45274;SDS011;31019;43.780;25.948;2022-07-22T06:36:09;33.40;;;31.00;;
45274;SDS011;31019;43.780;25.948;2022-07-22T06:38:36;34.53;;;32.50;;
45274;SDS011;31019;43.780;25.948;2022-07-22T06:41:03;34.67;;;32.67;;
45274;SDS011;31019;43.780;25.948;2022-07-22T06:43:30;32.15;;;29.70;;
45274;SDS011;31019;43.780;25.948;2022-07-22T06:45:58;33.13;;;30.92;;
45274;SDS011;31019;43.780;25.948;2022-07-22T06:48:28;32.17;;;30.02;;
45274;SDS011;31019;43.780;25.948;2022-07-22T06:50:55;32.75;;;30.73;;
45274;SDS011;31019;43.780;25.948;2022-07-22T06:53:22;29.52;;;27.63;;
45274;SDS011;31019;43.780;25.948;2022-07-22T06:55:49;29.65;;;27.75;;
45274;SDS011;31019;43.780;25.948;2022-07-22T06:58:16;25.77;;;24.10;;
45274;SDS011;31019;43.780;25.948;2022-07-22T07:00:43;26.85;;;24.92;;
45274;SDS011;31019;43.780;25.948;2022-07-22T07:03:10;26.95;;;25.05;;
45274;SDS011;31019;43.780;25.948;2022-07-22T07:05:38;26.45;;;24.40;;
45274;SDS011;31019;43.780;25.948;2022-07-22T07:08:05;35.60;;;32.80;;
45274;SDS011;31019;43.780;25.948;2022-07-22T07:10:32;29.50;;;27.60;;
45274;SDS011;31019;43.780;25.948;2022-07-22T07:13:01;26.95;;;25.13;;
45274;SDS011;31019;43.780;25.948;2022-07-22T07:15:29;29.58;;;27.58;;
45274;SDS011;31019;43.780;25.948;2022-07-22T07:17:57;27.95;;;25.85;;
45274;SDS011;31019;43.780;25.948;2022-07-22T07:25:33;33.75;;;31.40;;
45274;SDS011;31019;43.780;25.948;2022-07-22T07:28:01;32.10;;;30.00;;
45274;SDS011;31019;43.780;25.948;2022-07-22T07:30:29;30.85;;;28.85;;
45274;SDS011;31019;43.780;25.948;2022-07-22T07:32:56;34.25;;;31.75;;
45274;SDS011;31019;43.780;25.948;2022-07-22T07:35:23;33.65;;;31.27;;
45274;SDS011;31019;43.780;25.948;2022-07-22T07:37:49;32.25;;;29.83;;
45274;SDS011;31019;43.780;25.948;2022-07-22T07:40:26;33.45;;;31.17;;
45274;SDS011;31019;43.780;25.948;2022-07-22T07:42:53;33.00;;;30.95;;
45274;SDS011;31019;43.780;25.948;2022-07-22T07:45:20;31.65;;;29.50;;
45274;SDS011;31019;43.780;25.948;2022-07-22T07:47:47;30.35;;;28.55;;
45274;SDS011;31019;43.780;25.948;2022-07-22T07:50:14;28.70;;;27.10;;
45274;SDS011;31019;43.780;25.948;2022-07-22T07:52:43;34.13;;;32.33;;
45274;SDS011;31019;43.780;25.948;2022-07-22T07:55:12;32.50;;;30.15;;
45274;SDS011;31019;43.780;25.948;2022-07-22T07:57:42;30.00;;;28.17;;
45274;SDS011;31019;43.780;25.948;2022-07-22T08:00:12;34.40;;;32.25;;
45274;SDS011;31019;43.780;25.948;2022-07-22T08:02:40;38.40;;;35.80;;
45274;SDS011;31019;43.780;25.948;2022-07-22T08:05:09;34.65;;;32.55;;
45274;SDS011;31019;43.780;25.948;2022-07-22T08:07:38;35.75;;;33.58;;
45274;SDS011;31019;43.780;25.948;2022-07-22T08:10:06;34.70;;;32.40;;
45274;SDS011;31019;43.780;25.948;2022-07-22T08:12:34;38.05;;;35.75;;
45274;SDS011;31019;43.780;25.948;2022-07-22T08:15:02;37.47;;;35.38;;
45274;SDS011;31019;43.780;25.948;2022-07-22T08:17:29;33.80;;;31.60;;
45274;SDS011;31019;43.780;25.948;2022-07-22T08:19:57;37.42;;;34.95;;
45274;SDS011;31019;43.780;25.948;2022-07-22T08:22:26;33.53;;;31.52;;
45274;SDS011;31019;43.780;25.948;2022-07-22T08:24:53;30.83;;;28.63;;
45274;SDS011;31019;43.780;25.948;2022-07-22T08:27:20;28.05;;;26.23;;
45274;SDS011;31019;43.780;25.948;2022-07-22T08:29:48;31.85;;;29.80;;
45274;SDS011;31019;43.780;25.948;2022-07-22T08:32:17;36.58;;;34.13;;
45274;SDS011;31019;43.780;25.948;2022-07-22T08:34:44;36.05;;;33.83;;
45274;SDS011;31019;43.780;25.948;2022-07-22T08:37:11;33.17;;;31.15;;
45274;SDS011;31019;43.780;25.948;2022-07-22T08:39:38;34.42;;;32.33;;
45274;SDS011;31019;43.780;25.948;2022-07-22T08:42:05;34.50;;;32.50;;
45274;SDS011;31019;43.780;25.948;2022-07-22T08:44:32;35.78;;;33.70;;
45274;SDS011;31019;43.780;25.948;2022-07-22T08:47:00;36.83;;;34.33;;
45274;SDS011;31019;43.780;25.948;2022-07-22T08:49:28;35.10;;;32.67;;
45274;SDS011;31019;43.780;25.948;2022-07-22T08:51:56;37.40;;;35.25;;
45274;SDS011;31019;43.780;25.948;2022-07-22T08:54:23;32.13;;;29.65;;
45274;SDS011;31019;43.780;25.948;2022-07-22T08:56:51;32.55;;;30.25;;
45274;SDS011;31019;43.780;25.948;2022-07-22T08:59:19;31.08;;;28.92;;
45274;SDS011;31019;43.780;25.948;2022-07-22T09:02:02;30.42;;;27.85;;
45274;SDS011;31019;43.780;25.948;2022-07-22T09:04:31;30.33;;;27.92;;
45274;SDS011;31019;43.780;25.948;2022-07-22T09:07:00;28.75;;;26.45;;
45274;SDS011;31019;43.780;25.948;2022-07-22T09:12:04;28.13;;;25.92;;
45274;SDS011;31019;43.780;25.948;2022-07-22T09:17:25;30.60;;;28.20;;
45274;SDS011;31019;43.780;25.948;2022-07-22T09:22:30;34.53;;;32.00;;
45274;SDS011;31019;43.780;25.948;2022-07-22T09:25:17;29.25;;;27.10;;
45274;SDS011;31019;43.780;25.948;2022-07-22T09:27:54;29.23;;;26.55;;
45274;SDS011;31019;43.780;25.948;2022-07-22T09:30:24;27.60;;;25.50;;
45274;SDS011;31019;43.780;25.948;2022-07-22T09:32:53;27.88;;;25.83;;
45274;SDS011;31019;43.780;25.948;2022-07-22T09:37:55;27.95;;;25.45;;
45274;SDS011;31019;43.780;25.948;2022-07-22T09:40:26;26.95;;;24.65;;
45274;SDS011;31019;43.780;25.948;2022-07-22T09:43:03;32.43;;;29.87;;
45274;SDS011;31019;43.780;25.948;2022-07-22T09:45:32;29.90;;;27.58;;
45274;SDS011;31019;43.780;25.948;2022-07-22T09:48:00;33.83;;;31.73;;
45274;SDS011;31019;43.780;25.948;2022-07-22T09:50:32;32.17;;;30.08;;
45274;SDS011;31019;43.780;25.948;2022-07-22T09:53:01;29.67;;;27.67;;
45274;SDS011;31019;43.780;25.948;2022-07-22T09:55:28;30.30;;;28.17;;
45274;SDS011;31019;43.780;25.948;2022-07-22T09:57:58;31.85;;;29.55;;
45274;SDS011;31019;43.780;25.948;2022-07-22T10:00:26;29.83;;;27.63;;
45274;SDS011;31019;43.780;25.948;2022-07-22T10:02:54;31.58;;;29.27;;
45274;SDS011;31019;43.780;25.948;2022-07-22T10:05:23;30.50;;;28.25;;
45274;SDS011;31019;43.780;25.948;2022-07-22T10:07:53;39.53;;;36.95;;
45274;SDS011;31019;43.780;25.948;2022-07-22T10:10:21;34.22;;;31.95;;
45274;SDS011;31019;43.780;25.948;2022-07-22T10:12:50;37.35;;;34.90;;
45274;SDS011;31019;43.780;25.948;2022-07-22T10:15:20;35.40;;;32.92;;
45274;SDS011;31019;43.780;25.948;2022-07-22T10:17:50;38.50;;;36.00;;
45274;SDS011;31019;43.780;25.948;2022-07-22T10:20:19;36.45;;;34.22;;
45274;SDS011;31019;43.780;25.948;2022-07-22T10:22:50;36.47;;;34.05;;
45274;SDS011;31019;43.780;25.948;2022-07-22T10:25:23;35.28;;;33.05;;
45274;SDS011;31019;43.780;25.948;2022-07-22T10:27:52;32.55;;;30.15;;
45274;SDS011;31019;43.780;25.948;2022-07-22T10:30:21;31.77;;;29.50;;
45274;SDS011;31019;43.780;25.948;2022-07-22T10:33:03;30.25;;;28.05;;
45274;SDS011;31019;43.780;25.948;2022-07-22T10:35:32;28.52;;;26.45;;
45274;SDS011;31019;43.780;25.948;2022-07-22T10:38:03;31.58;;;29.45;;
45274;SDS011;31019;43.780;25.948;2022-07-22T10:40:33;29.20;;;26.90;;
45274;SDS011;31019;43.780;25.948;2022-07-22T10:43:13;29.73;;;27.48;;
45274;SDS011;31019;43.780;25.948;2022-07-22T10:45:44;30.85;;;28.67;;
45274;SDS011;31019;43.780;25.948;2022-07-22T10:50:52;30.13;;;27.90;;
45274;SDS011;31019;43.780;25.948;2022-07-22T10:53:42;29.88;;;27.77;;
45274;SDS011;31019;43.780;25.948;2022-07-22T10:56:15;29.02;;;26.90;;
45274;SDS011;31019;43.780;25.948;2022-07-22T10:58:46;29.08;;;26.95;;
45274;SDS011;31019;43.780;25.948;2022-07-22T11:01:18;29.15;;;26.95;;
45274;SDS011;31019;43.780;25.948;2022-07-22T11:03:47;28.25;;;25.75;;
45274;SDS011;31019;43.780;25.948;2022-07-22T11:06:20;27.75;;;25.42;;
45274;SDS011;31019;43.780;25.948;2022-07-22T11:08:52;28.58;;;26.45;;
45274;SDS011;31019;43.780;25.948;2022-07-22T11:14:21;31.58;;;29.17;;
45274;SDS011;31019;43.780;25.948;2022-07-22T11:16:53;29.67;;;27.48;;
45274;SDS011;31019;43.780;25.948;2022-07-22T11:19:23;30.08;;;27.75;;
45274;SDS011;31019;43.780;25.948;2022-07-22T11:21:52;35.58;;;32.67;;
45274;SDS011;31019;43.780;25.948;2022-07-22T11:24:23;34.78;;;32.28;;
45274;SDS011;31019;43.780;25.948;2022-07-22T11:26:52;33.40;;;30.73;;
45274;SDS011;31019;43.780;25.948;2022-07-22T11:29:24;38.22;;;35.53;;
45274;SDS011;31019;43.780;25.948;2022-07-22T11:31:52;36.83;;;34.33;;
45274;SDS011;31019;43.780;25.948;2022-07-22T11:34:20;29.90;;;27.70;;
45274;SDS011;31019;43.780;25.948;2022-07-22T11:36:49;32.70;;;30.17;;
45274;SDS011;31019;43.780;25.948;2022-07-22T11:39:18;39.50;;;36.88;;
45274;SDS011;31019;43.780;25.948;2022-07-22T11:41:48;34.10;;;31.73;;
45274;SDS011;31019;43.780;25.948;2022-07-22T11:44:17;32.75;;;30.35;;
45274;SDS011;31019;43.780;25.948;2022-07-22T11:46:44;34.28;;;31.77;;
45274;SDS011;31019;43.780;25.948;2022-07-22T11:49:13;32.70;;;30.30;;
45274;SDS011;31019;43.780;25.948;2022-07-22T11:51:41;32.80;;;29.40;;
45274;SDS011;31019;43.780;25.948;2022-07-22T11:54:08;32.60;;;29.98;;
45274;SDS011;31019;43.780;25.948;2022-07-22T11:56:35;30.60;;;28.38;;
45274;SDS011;31019;43.780;25.948;2022-07-22T11:59:04;32.85;;;30.25;;
45274;SDS011;31019;43.780;25.948;2022-07-22T12:01:35;34.28;;;31.60;;
45274;SDS011;31019;43.780;25.948;2022-07-22T12:04:04;32.83;;;30.13;;
45274;SDS011;31019;43.780;25.948;2022-07-22T12:06:37;28.77;;;26.50;;
45274;SDS011;31019;43.780;25.948;2022-07-22T12:09:06;32.75;;;30.15;;
45274;SDS011;31019;43.780;25.948;2022-07-22T12:11:35;34.05;;;31.58;;
45274;SDS011;31019;43.780;25.948;2022-07-22T12:14:06;32.92;;;30.13;;
45274;SDS011;31019;43.780;25.948;2022-07-22T12:16:35;31.90;;;29.73;;
45274;SDS011;31019;43.780;25.948;2022-07-22T12:19:04;34.40;;;31.98;;
45274;SDS011;31019;43.780;25.948;2022-07-22T12:21:34;35.78;;;33.47;;
45274;SDS011;31019;43.780;25.948;2022-07-22T12:24:03;33.08;;;30.77;;
45274;SDS011;31019;43.780;25.948;2022-07-22T12:26:42;32.83;;;30.70;;
45274;SDS011;31019;43.780;25.948;2022-07-22T12:29:14;35.22;;;32.92;;
45274;SDS011;31019;43.780;25.948;2022-07-22T12:31:42;35.67;;;33.13;;
45274;SDS011;31019;43.780;25.948;2022-07-22T12:34:10;34.97;;;32.30;;
45274;SDS011;31019;43.780;25.948;2022-07-22T12:36:37;33.30;;;31.00;;
45274;SDS011;31019;43.780;25.948;2022-07-22T12:39:10;32.05;;;29.65;;
45274;SDS011;31019;43.780;25.948;2022-07-22T12:41:44;31.40;;;29.02;;
45274;SDS011;31019;43.780;25.948;2022-07-22T12:44:16;31.20;;;28.58;;
45274;SDS011;31019;43.780;25.948;2022-07-22T12:46:46;32.35;;;30.23;;
45274;SDS011;31019;43.780;25.948;2022-07-22T12:49:16;31.10;;;29.02;;
45274;SDS011;31019;43.780;25.948;2022-07-22T12:54:38;29.23;;;27.25;;
45274;SDS011;31019;43.780;25.948;2022-07-22T12:57:07;25.83;;;23.85;;
45274;SDS011;31019;43.780;25.948;2022-07-22T12:59:36;28.73;;;26.60;;
45274;SDS011;31019;43.780;25.948;2022-07-22T13:02:03;29.92;;;27.88;;
45274;SDS011;31019;43.780;25.948;2022-07-22T13:04:30;32.83;;;30.73;;
45274;SDS011;31019;43.780;25.948;2022-07-22T13:06:56;35.15;;;32.75;;
45274;SDS011;31019;43.780;25.948;2022-07-22T13:09:23;36.60;;;33.90;;
45274;SDS011;31019;43.780;25.948;2022-07-22T13:11:50;37.08;;;34.45;;
45274;SDS011;31019;43.780;25.948;2022-07-22T13:14:18;34.58;;;32.22;;
45274;SDS011;31019;43.780;25.948;2022-07-22T13:16:47;36.05;;;33.55;;
45274;SDS011;31019;43.780;25.948;2022-07-22T13:19:14;42.55;;;39.75;;
45274;SDS011;31019;43.780;25.948;2022-07-22T13:21:41;35.70;;;33.20;;
45274;SDS011;31019;43.780;25.948;2022-07-22T13:24:09;36.63;;;34.22;;
45274;SDS011;31019;43.780;25.948;2022-07-22T13:26:36;33.28;;;30.73;;
45274;SDS011;31019;43.780;25.948;2022-07-22T13:29:03;31.08;;;28.67;;
45274;SDS011;31019;43.780;25.948;2022-07-22T13:31:30;30.02;;;27.83;;
45274;SDS011;31019;43.780;25.948;2022-07-22T13:33:58;31.85;;;29.45;;
45274;SDS011;31019;43.780;25.948;2022-07-22T13:36:25;31.23;;;28.88;;
45274;SDS011;31019;43.780;25.948;2022-07-22T13:38:53;30.00;;;27.42;;
45274;SDS011;31019;43.780;25.948;2022-07-22T13:41:20;31.45;;;28.95;;
45274;SDS011;31019;43.780;25.948;2022-07-22T13:43:47;29.67;;;27.58;;
45274;SDS011;31019;43.780;25.948;2022-07-22T13:46:15;27.58;;;25.33;;
45274;SDS011;31019;43.780;25.948;2022-07-22T13:48:42;27.33;;;25.08;;
45274;SDS011;31019;43.780;25.948;2022-07-22T13:51:11;31.88;;;29.30;;
45274;SDS011;31019;43.780;25.948;2022-07-22T13:53:41;32.63;;;30.38;;
45274;SDS011;31019;43.780;25.948;2022-07-22T13:56:08;31.42;;;29.13;;
45274;SDS011;31019;43.780;25.948;2022-07-22T13:58:37;29.58;;;27.20;;
45274;SDS011;31019;43.780;25.948;2022-07-22T14:01:06;29.33;;;27.13;;
45274;SDS011;31019;43.780;25.948;2022-07-22T14:03:34;28.45;;;26.10;;
45274;SDS011;31019;43.780;25.948;2022-07-22T14:06:00;28.33;;;26.02;;
45274;SDS011;31019;43.780;25.948;2022-07-22T14:08:29;26.08;;;23.90;;
45274;SDS011;31019;43.780;25.948;2022-07-22T14:10:56;28.08;;;25.77;;
45274;SDS011;31019;43.780;25.948;2022-07-22T14:13:23;28.75;;;26.27;;
45274;SDS011;31019;43.780;25.948;2022-07-22T14:15:50;27.92;;;25.27;;
45274;SDS011;31019;43.780;25.948;2022-07-22T14:18:17;29.58;;;26.95;;
45274;SDS011;31019;43.780;25.948;2022-07-22T14:20:44;28.50;;;25.98;;
45274;SDS011;31019;43.780;25.948;2022-07-22T14:23:11;26.83;;;24.40;;
45274;SDS011;31019;43.780;25.948;2022-07-22T14:25:39;27.58;;;25.27;;
45274;SDS011;31019;43.780;25.948;2022-07-22T14:28:07;26.70;;;24.60;;
45274;SDS011;31019;43.780;25.948;2022-07-22T14:30:34;26.98;;;24.45;;
45274;SDS011;31019;43.780;25.948;2022-07-22T14:33:01;30.00;;;27.58;;
45274;SDS011;31019;43.780;25.948;2022-07-22T14:35:28;27.38;;;24.98;;
45274;SDS011;31019;43.780;25.948;2022-07-22T14:37:59;28.60;;;25.88;;
45274;SDS011;31019;43.780;25.948;2022-07-22T14:40:25;27.88;;;25.80;;